createdAt,value
2018-03-01T00:02:07.664Z,66.91
2018-03-01T00:04:39.397Z,67.14
2018-03-01T00:07:10.989Z,66.54
2018-03-01T00:09:42.846Z,66.98
2018-03-01T00:12:14.132Z,66.94
2018-03-01T00:14:45.689Z,66.58
2018-03-01T00:17:17.773Z,67.14
2018-03-01T00:19:49.068Z,67.30
2018-03-01T00:22:29.308Z,66.90
2018-03-01T00:25:01.469Z,68.44
2018-03-01T00:27:32.942Z,68.21
2018-03-01T00:30:04.383Z,67.94
2018-03-01T00:32:36.253Z,67.98
2018-03-01T00:35:08.048Z,68.20
2018-03-01T00:37:39.349Z,67.73
2018-03-01T00:40:11.396Z,68.13
2018-03-01T00:42:42.686Z,67.96
2018-03-01T00:45:14.366Z,67.87
2018-03-01T00:47:46.897Z,67.89
2018-03-01T00:50:18.880Z,68.27
2018-03-01T00:52:50.917Z,68.26
2018-03-01T00:55:22.777Z,68.14
2018-03-01T00:57:54.624Z,68.62
2018-03-01T01:00:26.006Z,68.23
2018-03-01T01:02:57.905Z,68.20
2018-03-01T01:05:29.392Z,68.14
2018-03-01T01:08:03.398Z,68.52
2018-03-01T01:10:34.785Z,68.65
2018-03-01T01:13:06.149Z,68.68
2018-03-01T01:15:37.828Z,68.04
2018-03-01T01:18:09.689Z,68.51
2018-03-01T01:20:41.728Z,68.35
2018-03-01T01:23:13.088Z,68.37
2018-03-01T01:25:44.607Z,68.45
2018-03-01T01:28:16.157Z,68.33
2018-03-01T01:30:47.568Z,68.68
2018-03-01T01:33:19.127Z,69.17
2018-03-01T01:35:50.811Z,69.08
2018-03-01T01:38:22.393Z,69.05
2018-03-01T01:40:53.703Z,68.87
2018-03-01T01:43:26.088Z,69.19
2018-03-01T01:45:57.404Z,69.07
2018-03-01T01:48:29.561Z,69.06
2018-03-01T01:51:05.982Z,69.57
2018-03-01T01:53:37.828Z,69.55
2018-03-01T01:56:09.550Z,69.13
2018-03-01T01:58:41.568Z,68.84
2018-03-01T02:01:14.030Z,69.97
2018-03-01T02:03:45.390Z,69.91
2018-03-01T02:06:17.329Z,69.82
2018-03-01T02:08:49.064Z,69.71
2018-03-01T02:11:20.808Z,69.81
2018-03-01T02:13:52.701Z,70.04
2018-03-01T02:16:24.422Z,70.35
2018-03-01T02:18:56.189Z,70.30
2018-03-01T02:21:28.228Z,70.06
2018-03-01T02:24:00.985Z,70.57
2018-03-01T02:26:33.093Z,70.03
2018-03-01T02:29:05.468Z,70.51
2018-03-01T02:31:37.253Z,70.06
2018-03-01T02:34:09.153Z,69.96
2018-03-01T02:36:42.020Z,69.99
2018-03-01T02:39:13.532Z,70.68
2018-03-01T02:41:44.734Z,70.90
2018-03-01T02:46:46.529Z,70.68
2018-03-01T02:49:18.077Z,71.09
2018-03-01T02:51:50.300Z,70.83
2018-03-01T02:54:21.861Z,70.90
2018-03-01T02:56:53.755Z,71.41
2018-03-01T02:59:25.497Z,71.84
2018-03-01T03:01:56.824Z,70.57
2018-03-01T03:04:28.020Z,72.80
2018-03-01T03:07:00.124Z,72.22
2018-03-01T03:09:32.333Z,72.74
2018-03-01T03:12:04.036Z,71.42
2018-03-01T03:14:35.646Z,71.66
2018-03-01T03:17:07.037Z,72.34
2018-03-01T03:19:38.660Z,72.17
2018-03-01T03:22:10.144Z,71.66
2018-03-01T03:24:42.121Z,71.60
2018-03-01T03:27:13.168Z,69.94
2018-03-01T03:29:45.106Z,70.83
2018-03-01T03:32:17.071Z,71.78
2018-03-01T03:34:49.229Z,71.78
2018-03-01T03:37:20.336Z,71.14
2018-03-01T03:39:52.225Z,71.57
2018-03-01T03:42:23.910Z,72.31
2018-03-01T03:44:55.520Z,71.86
2018-03-01T03:47:27.600Z,72.24
2018-03-01T03:50:01.261Z,72.47
2018-03-01T03:52:32.591Z,72.54
2018-03-01T03:55:05.371Z,72.10
2018-03-01T03:57:37.272Z,71.53
2018-03-01T04:00:08.721Z,72.27
2018-03-01T04:02:40.452Z,72.56
2018-03-01T04:05:11.644Z,72.58
2018-03-01T04:07:44.486Z,71.57
2018-03-01T04:10:15.902Z,73.72
2018-03-01T04:12:47.245Z,72.50
2018-03-01T04:15:18.956Z,72.74
2018-03-01T04:17:50.606Z,72.42
2018-03-01T04:20:22.712Z,73.11
2018-03-01T04:22:53.916Z,72.94
2018-03-01T04:25:25.722Z,72.31
2018-03-01T04:27:57.424Z,72.39
2018-03-01T04:30:29.604Z,72.90
2018-03-01T04:33:02.462Z,72.80
2018-03-01T04:35:33.610Z,73.38
2018-03-01T04:38:05.413Z,73.11
2018-03-01T04:40:37.616Z,72.90
2018-03-01T04:43:08.739Z,72.50
2018-03-01T04:45:40.329Z,72.89
2018-03-01T04:48:12.628Z,73.37
2018-03-01T04:50:44.385Z,73.44
2018-03-01T04:53:16.598Z,74.08
2018-03-01T04:55:48.710Z,73.63
2018-03-01T04:58:20.709Z,73.42
2018-03-01T05:03:29.852Z,73.64
2018-03-01T05:06:01.437Z,72.88
2018-03-01T05:08:33.109Z,73.88
2018-03-01T05:11:07.916Z,73.27
2018-03-01T05:13:39.367Z,73.29
2018-03-01T05:16:10.936Z,73.92
2018-03-01T05:18:43.504Z,73.01
2018-03-01T05:21:14.683Z,72.68
2018-03-01T05:23:46.881Z,73.13
2018-03-01T05:26:19.166Z,72.51
2018-03-01T05:28:51.060Z,73.47
2018-03-01T05:31:23.039Z,73.39
2018-03-01T05:33:54.437Z,73.66
2018-03-01T05:36:25.559Z,74.44
2018-03-01T05:38:57.105Z,73.65
2018-03-01T05:41:33.555Z,74.47
2018-03-01T05:44:06.852Z,75.77
2018-03-01T05:46:37.930Z,74.48
2018-03-01T05:49:09.397Z,75.15
2018-03-01T05:51:42.466Z,75.63
2018-03-01T05:54:14.158Z,75.86
2018-03-01T05:56:46.189Z,75.35
2018-03-01T05:59:17.961Z,76.02
2018-03-01T06:01:49.136Z,75.53
2018-03-01T06:04:20.728Z,75.30
2018-03-01T06:06:52.317Z,75.74
2018-03-01T06:09:23.927Z,75.97
2018-03-01T06:11:55.170Z,75.63
2018-03-01T06:14:26.864Z,76.41
2018-03-01T06:16:59.189Z,74.38
2018-03-01T06:19:30.401Z,75.19
2018-03-01T06:22:03.893Z,75.50
2018-03-01T06:24:35.765Z,75.83
2018-03-01T06:27:06.922Z,75.53
2018-03-01T06:29:38.405Z,75.60
2018-03-01T06:32:09.589Z,76.57
2018-03-01T06:34:41.190Z,78.19
2018-03-01T06:37:12.274Z,78.80
2018-03-01T06:39:43.484Z,77.12
2018-03-01T06:42:15.062Z,76.33
2018-03-01T06:44:47.343Z,76.83
2018-03-01T06:47:19.463Z,76.87
2018-03-01T06:49:50.935Z,76.88
2018-03-01T06:52:21.989Z,76.19
2018-03-01T06:54:54.045Z,76.62
2018-03-01T06:57:25.211Z,77.01
2018-03-01T06:59:56.369Z,76.30
2018-03-01T07:02:27.737Z,76.52
2018-03-01T07:04:58.929Z,76.86
2018-03-01T07:07:30.005Z,77.08
2018-03-01T07:10:01.566Z,78.49
2018-03-01T07:12:32.642Z,76.63
2018-03-01T07:15:04.774Z,77.44
2018-03-01T07:17:35.869Z,76.87
2018-03-01T07:20:07.690Z,76.41
2018-03-01T07:22:38.783Z,76.59
2018-03-01T07:25:09.854Z,76.18
2018-03-01T07:27:41.229Z,75.80
2018-03-01T07:30:12.720Z,76.36
2018-03-01T07:35:19.336Z,76.13
2018-03-01T07:37:50.565Z,74.83
2018-03-01T07:40:21.698Z,74.35
2018-03-01T07:42:53.170Z,74.15
2018-03-01T07:45:25.070Z,73.45
2018-03-01T07:47:57.395Z,72.64
2018-03-01T07:50:29.222Z,73.01
2018-03-01T07:53:00.280Z,72.78
2018-03-01T07:55:31.384Z,72.39
2018-03-01T07:58:02.825Z,71.91
2018-03-01T08:00:37.023Z,71.92
2018-03-01T08:03:08.109Z,71.21
2018-03-01T08:05:39.723Z,71.71
2018-03-01T08:08:10.840Z,71.08
2018-03-01T08:10:42.221Z,71.19
2018-03-01T08:13:13.357Z,71.00
2018-03-01T08:15:44.457Z,70.66
2018-03-01T08:18:15.850Z,69.84
2018-03-01T08:20:46.954Z,69.19
2018-03-01T08:23:18.903Z,68.97
2018-03-01T08:25:50.784Z,69.27
2018-03-01T08:28:21.897Z,68.29
2018-03-01T08:30:53.348Z,67.77
2018-03-01T08:33:24.437Z,68.14
2018-03-01T08:35:55.612Z,67.29
2018-03-01T08:38:27.971Z,67.02
2018-03-01T08:40:59.665Z,66.78
2018-03-01T08:43:30.802Z,65.89
2018-03-01T08:46:03.053Z,65.56
2018-03-01T08:48:34.164Z,65.15
2018-03-01T08:51:05.656Z,65.25
2018-03-01T08:53:37.142Z,65.54
2018-03-01T08:56:08.200Z,64.64
2018-03-01T08:58:39.590Z,64.36
2018-03-01T09:01:10.713Z,63.95
2018-03-01T09:03:41.841Z,63.49
2018-03-01T09:06:14.825Z,63.12
2018-03-01T09:08:45.899Z,63.26
2018-03-01T09:11:17.065Z,63.03
2018-03-01T09:13:48.768Z,62.83
2018-03-01T09:16:19.861Z,63.14
2018-03-01T09:18:51.195Z,62.36
2018-03-01T09:21:22.277Z,61.56
2018-03-01T09:23:53.309Z,61.08
2018-03-01T09:26:24.651Z,61.08
2018-03-01T09:28:55.829Z,60.40
2018-03-01T09:31:26.973Z,60.33
2018-03-01T09:33:58.459Z,60.18
2018-03-01T09:36:29.656Z,59.24
2018-03-01T09:39:00.739Z,60.01
2018-03-01T09:41:32.966Z,59.72
2018-03-01T09:44:04.277Z,59.93
2018-03-01T09:46:35.269Z,59.28
2018-03-01T09:49:07.070Z,58.63
2018-03-01T09:51:38.147Z,59.65
2018-03-01T09:54:09.291Z,59.52
2018-03-01T09:56:40.694Z,58.73
2018-03-01T09:59:11.789Z,59.07
2018-03-01T10:01:43.585Z,58.63
2018-03-01T10:04:15.305Z,57.51
2018-03-01T10:06:47.098Z,56.84
2018-03-01T10:09:19.013Z,57.02
2018-03-01T10:11:52.608Z,56.96
2018-03-01T10:14:24.277Z,56.67
2018-03-01T10:16:56.169Z,56.09
2018-03-01T10:19:27.601Z,57.45
2018-03-01T10:21:58.800Z,57.02
2018-03-01T10:24:30.752Z,56.84
2018-03-01T10:27:02.622Z,56.12
2018-03-01T10:29:35.765Z,55.20
2018-03-01T10:32:06.957Z,55.34
2018-03-01T10:34:38.082Z,55.39
2018-03-01T10:37:09.498Z,55.11
2018-03-01T10:39:40.768Z,54.13
2018-03-01T10:42:12.593Z,53.63
2018-03-01T10:44:44.885Z,53.88
2018-03-01T10:47:16.580Z,53.82
2018-03-01T10:49:48.100Z,53.06
2018-03-01T10:52:19.363Z,52.60
2018-03-01T10:54:51.290Z,53.75
2018-03-01T10:57:22.593Z,53.06
2018-03-01T10:59:53.762Z,53.16
2018-03-01T11:02:25.157Z,53.51
2018-03-01T11:04:57.171Z,52.08
2018-03-01T11:07:29.361Z,52.11
2018-03-01T11:10:01.679Z,51.90
2018-03-01T11:12:33.321Z,52.21
2018-03-01T11:15:04.984Z,51.89
2018-03-01T11:17:36.854Z,51.41
2018-03-01T11:20:08.214Z,50.80
2018-03-01T11:22:39.857Z,51.33
2018-03-01T11:25:11.528Z,51.26
2018-03-01T11:27:42.705Z,50.82
2018-03-01T11:30:14.802Z,51.14
2018-03-01T11:32:46.398Z,51.90
2018-03-01T11:35:17.505Z,50.86
2018-03-01T11:37:49.076Z,50.92
2018-03-01T11:40:20.253Z,50.47
2018-03-01T11:42:51.352Z,50.41
2018-03-01T11:45:22.850Z,51.12
2018-03-01T11:47:53.923Z,50.94
2018-03-01T11:50:25.252Z,50.64
2018-03-01T11:52:56.425Z,49.47
2018-03-01T11:55:27.490Z,48.71
2018-03-01T11:57:58.976Z,49.43
2018-03-01T12:00:30.105Z,49.21
2018-03-01T12:03:01.165Z,48.78
2018-03-01T12:05:32.917Z,48.81
2018-03-01T12:08:03.747Z,48.53
2018-03-01T12:10:36.399Z,49.01
2018-03-01T12:13:07.541Z,48.45
2018-03-01T12:15:38.405Z,48.81
2018-03-01T12:18:09.741Z,48.22
2018-03-01T12:20:40.551Z,47.82
2018-03-01T12:23:11.610Z,48.15
2018-03-01T12:25:42.793Z,48.00
2018-03-01T12:28:13.684Z,48.16
2018-03-01T12:33:26.233Z,48.01
2018-03-01T12:35:57.063Z,47.72
2018-03-01T12:38:28.186Z,47.75
2018-03-01T12:40:58.985Z,48.36
2018-03-01T12:43:29.759Z,48.12
2018-03-01T12:46:00.882Z,47.88
2018-03-01T12:48:31.685Z,47.86
2018-03-01T12:51:02.878Z,47.31
2018-03-01T12:53:34.649Z,47.58
2018-03-01T12:56:05.531Z,47.70
2018-03-01T12:58:36.525Z,48.38
2018-03-01T13:01:07.717Z,49.12
2018-03-01T13:03:38.873Z,48.96
2018-03-01T13:06:10.167Z,48.48
2018-03-01T13:08:41.172Z,47.69
2018-03-01T13:11:12.257Z,48.06
2018-03-01T13:13:43.661Z,47.57
2018-03-01T13:16:14.650Z,47.58
2018-03-01T13:18:45.585Z,47.89
2018-03-01T13:21:20.036Z,47.54
2018-03-01T13:23:51.282Z,47.27
2018-03-01T13:26:22.629Z,47.52
2018-03-01T13:28:53.694Z,48.06
2018-03-01T13:31:24.745Z,47.79
2018-03-01T13:33:56.377Z,47.15
2018-03-01T13:36:28.765Z,48.04
2018-03-01T13:38:59.781Z,47.60
2018-03-01T13:41:31.129Z,48.24
2018-03-01T13:44:02.598Z,47.72
2018-03-01T13:46:33.949Z,47.75
2018-03-01T13:49:05.405Z,47.66
2018-03-01T13:51:36.304Z,47.85
2018-03-01T13:54:07.680Z,47.95
2018-03-01T13:56:38.894Z,47.85
2018-03-01T13:59:11.785Z,47.91
2018-03-01T14:01:43.501Z,47.90
2018-03-01T14:04:14.382Z,47.91
2018-03-01T14:06:45.435Z,47.66
2018-03-01T14:09:17.365Z,47.39
2018-03-01T14:11:48.446Z,47.53
2018-03-01T14:14:19.509Z,47.25
2018-03-01T14:16:50.643Z,47.02
2018-03-01T14:19:22.247Z,47.44
2018-03-01T14:21:54.624Z,47.42
2018-03-01T14:24:25.897Z,47.39
2018-03-01T14:26:57.687Z,47.52
2018-03-01T14:29:28.988Z,47.29
2018-03-01T14:32:00.143Z,47.85
2018-03-01T14:34:31.336Z,47.38
2018-03-01T14:37:03.100Z,47.09
2018-03-01T14:39:34.005Z,47.42
2018-03-01T14:42:04.864Z,48.01
2018-03-01T14:44:35.765Z,47.98
2018-03-01T14:47:07.824Z,47.79
2018-03-01T14:49:38.908Z,47.91
2018-03-01T14:52:09.815Z,47.74
2018-03-01T14:54:41.146Z,48.04
2018-03-01T14:57:12.359Z,47.75
2018-03-01T14:59:43.265Z,47.58
2018-03-01T15:02:14.085Z,47.70
2018-03-01T15:04:44.899Z,47.42
2018-03-01T15:07:17.312Z,47.72
2018-03-01T15:09:50.098Z,47.28
2018-03-01T15:12:21.530Z,47.53
2018-03-01T15:14:52.400Z,47.96
2018-03-01T15:17:23.549Z,47.83
2018-03-01T15:19:58.861Z,47.88
2018-03-01T15:22:29.909Z,47.78
2018-03-01T15:25:01.874Z,47.35
2018-03-01T15:27:33.814Z,47.42
2018-03-01T15:30:04.901Z,47.29
2018-03-01T15:32:36.552Z,47.64
2018-03-01T15:35:07.506Z,48.16
2018-03-01T15:37:38.565Z,48.07
2018-03-01T15:40:09.688Z,48.64
2018-03-01T15:42:41.012Z,48.16
2018-03-01T15:45:13.069Z,48.18
2018-03-01T15:47:44.401Z,48.52
2018-03-01T15:50:15.206Z,48.63
2018-03-01T15:52:46.293Z,48.53
2018-03-01T15:55:18.606Z,48.21
2018-03-01T15:57:49.439Z,48.92
2018-03-01T16:00:20.565Z,49.18
2018-03-01T16:02:51.736Z,49.20
2018-03-01T16:05:23.419Z,49.45
2018-03-01T16:07:55.238Z,49.05
2018-03-01T16:10:26.441Z,48.80
2018-03-01T16:12:58.133Z,49.46
2018-03-01T16:15:29.190Z,50.23
2018-03-01T16:18:00.548Z,50.08
2018-03-01T16:20:31.673Z,50.37
2018-03-01T16:23:03.208Z,50.46
2018-03-01T16:25:34.541Z,50.43
2018-03-01T16:28:05.676Z,50.71
2018-03-01T16:30:36.776Z,50.54
2018-03-01T16:33:08.161Z,50.99
2018-03-01T16:35:39.314Z,51.35
2018-03-01T16:38:10.869Z,51.55
2018-03-01T16:40:41.897Z,51.55
2018-03-01T16:43:12.997Z,51.26
2018-03-01T16:45:44.821Z,51.61
2018-03-01T16:48:15.912Z,51.37
2018-03-01T16:50:46.966Z,51.36
2018-03-01T16:53:21.288Z,51.76
2018-03-01T16:55:52.341Z,52.47
2018-03-01T16:58:23.821Z,52.02
2018-03-01T17:00:54.918Z,52.94
2018-03-01T17:03:26.026Z,52.75
2018-03-01T17:05:58.232Z,52.92
2018-03-01T17:08:29.395Z,53.64
2018-03-01T17:11:00.484Z,53.45
2018-03-01T17:13:32.410Z,54.08
2018-03-01T17:16:03.557Z,54.20
2018-03-01T17:18:35.083Z,54.04
2018-03-01T17:21:06.161Z,53.91
2018-03-01T17:23:37.357Z,54.35
2018-03-01T17:26:14.657Z,54.71
2018-03-01T17:28:45.775Z,55.12
2018-03-01T17:31:19.071Z,54.95
2018-03-01T17:33:50.235Z,54.64
2018-03-01T17:36:21.458Z,54.99
2018-03-01T17:38:52.821Z,55.46
2018-03-01T17:41:25.154Z,55.43
2018-03-01T17:43:56.709Z,55.17
2018-03-01T17:46:27.813Z,55.14
2018-03-01T17:48:58.952Z,55.50
2018-03-01T17:51:30.597Z,55.88
2018-03-01T17:54:01.725Z,56.25
2018-03-01T17:56:32.863Z,55.77
2018-03-01T17:59:04.762Z,55.89
2018-03-01T18:01:35.926Z,56.09
2018-03-01T18:04:09.200Z,56.08
2018-03-01T18:06:40.345Z,56.01
2018-03-01T18:09:11.937Z,55.93
2018-03-01T18:11:43.033Z,57.01
2018-03-01T18:14:14.148Z,56.61
2018-03-01T18:16:45.548Z,56.46
2018-03-01T18:19:16.689Z,56.48
2018-03-01T18:21:47.777Z,56.73
2018-03-01T18:24:20.114Z,56.52
2018-03-01T18:26:52.362Z,57.26
2018-03-01T18:29:25.443Z,57.71
2018-03-01T18:31:56.541Z,57.65
2018-03-01T18:34:27.671Z,58.27
2018-03-01T18:37:06.167Z,58.68
2018-03-01T18:39:37.312Z,58.74
2018-03-01T18:42:08.708Z,59.19
2018-03-01T18:44:39.833Z,59.50
2018-03-01T18:47:10.955Z,58.72
2018-03-01T18:49:42.367Z,58.67
2018-03-01T18:52:13.551Z,58.50
2018-03-01T18:54:44.683Z,58.92
2018-03-01T18:57:16.171Z,58.75
2018-03-01T18:59:51.603Z,59.19
2018-03-01T19:02:22.696Z,58.55
2018-03-01T19:04:54.068Z,59.08
2018-03-01T19:07:25.299Z,59.42
2018-03-01T19:12:33.318Z,59.62
2018-03-01T19:15:04.445Z,60.14
2018-03-01T19:17:35.901Z,59.62
2018-03-01T19:20:07.182Z,60.46
2018-03-01T19:22:38.300Z,60.14
2018-03-01T19:25:09.739Z,60.68
2018-03-01T19:27:40.831Z,60.75
2018-03-01T19:30:11.971Z,60.94
2018-03-01T19:32:43.924Z,60.30
2018-03-01T19:35:15.011Z,59.63
2018-03-01T19:37:46.140Z,61.68
2018-03-01T19:40:17.568Z,60.99
2018-03-01T19:42:49.231Z,60.52
2018-03-01T19:45:20.260Z,60.66
2018-03-01T19:47:51.663Z,60.64
2018-03-01T19:50:22.787Z,60.20
2018-03-01T19:52:54.365Z,60.73
2018-03-01T19:55:25.736Z,60.80
2018-03-01T19:57:57.279Z,61.33
2018-03-01T20:00:28.402Z,60.64
2018-03-01T20:02:59.761Z,61.49
2018-03-01T20:05:30.928Z,61.54
2018-03-01T20:08:02.135Z,62.10
2018-03-01T20:10:33.674Z,62.21
2018-03-01T20:13:04.777Z,61.48
2018-03-01T20:15:35.855Z,61.96
2018-03-01T20:18:08.155Z,62.00
2018-03-01T20:20:39.256Z,61.92
2018-03-01T20:23:10.400Z,62.51
2018-03-01T20:25:41.846Z,62.24
2018-03-01T20:28:13.789Z,63.21
2018-03-01T20:30:44.921Z,63.68
2018-03-01T20:33:19.205Z,62.79
2018-03-01T20:35:50.402Z,62.87
2018-03-01T20:38:21.748Z,63.15
2018-03-01T20:40:53.317Z,63.98
2018-03-01T20:43:24.814Z,63.34
2018-03-01T20:45:55.937Z,62.75
2018-03-01T20:48:27.313Z,64.52
2018-03-01T20:51:00.393Z,63.57
2018-03-01T20:53:31.509Z,62.98
2018-03-01T20:56:04.640Z,64.29
2018-03-01T20:58:35.789Z,63.94
2018-03-01T21:01:06.949Z,63.72
2018-03-01T21:03:38.324Z,63.49
2018-03-01T21:06:10.365Z,64.38
2018-03-01T21:08:42.115Z,63.28
2018-03-01T21:11:14.090Z,65.04
2018-03-01T21:13:45.234Z,65.57
2018-03-01T21:16:16.978Z,64.07
2018-03-01T21:18:48.034Z,64.79
2018-03-01T21:21:19.218Z,65.81
2018-03-01T21:23:51.027Z,65.30
2018-03-01T21:26:22.239Z,65.23
2018-03-01T21:28:53.362Z,65.62
2018-03-01T21:31:24.711Z,66.07
2018-03-01T21:33:56.179Z,65.08
2018-03-01T21:36:27.395Z,65.73
2018-03-01T21:39:00.440Z,64.96
2018-03-01T21:41:31.629Z,64.16
2018-03-01T21:47:01.905Z,64.11
2018-03-01T21:49:33.077Z,64.65
2018-03-01T21:52:04.945Z,64.54
2018-03-01T21:54:36.049Z,64.86
2018-03-01T21:57:07.101Z,66.86
2018-03-01T21:59:38.653Z,66.60
2018-03-01T22:02:10.353Z,66.08
2018-03-01T22:04:41.729Z,65.66
2018-03-01T22:07:13.341Z,66.25
2018-03-01T22:09:44.524Z,66.40
2018-03-01T22:12:16.564Z,66.27
2018-03-01T22:14:48.261Z,64.95
2018-03-01T22:17:19.386Z,65.25
2018-03-01T22:19:51.076Z,66.33
2018-03-01T22:22:22.141Z,65.37
2018-03-01T22:24:53.613Z,68.00
2018-03-01T22:27:24.761Z,68.08
2018-03-01T22:29:55.930Z,67.06
2018-03-01T22:32:27.281Z,67.23
2018-03-01T22:34:58.374Z,66.63
2018-03-01T22:37:29.826Z,66.57
2018-03-01T22:40:03.966Z,67.56
2018-03-01T22:42:36.101Z,66.87
2018-03-01T22:45:08.260Z,67.40
2018-03-01T22:47:39.390Z,68.25
2018-03-01T22:50:11.801Z,67.54
2018-03-01T22:52:43.210Z,67.70
2018-03-01T22:55:17.210Z,66.53
2018-03-01T22:57:48.785Z,67.32
2018-03-01T23:00:28.782Z,67.15
2018-03-01T23:03:00.725Z,68.24
2018-03-01T23:05:31.845Z,67.54
2018-03-01T23:08:04.269Z,68.52
2018-03-01T23:10:36.184Z,68.01
2018-03-01T23:13:07.264Z,68.67
2018-03-01T23:15:38.673Z,67.03
2018-03-01T23:18:11.224Z,67.42
2018-03-01T23:20:47.502Z,67.98
2018-03-01T23:24:42.978Z,67.54
2018-03-01T23:27:14.156Z,68.12
2018-03-01T23:29:45.752Z,69.42
2018-03-01T23:32:17.416Z,69.12
2018-03-01T23:34:48.529Z,68.56
2018-03-01T23:37:20.077Z,69.69
2018-03-01T23:39:51.882Z,68.21
2018-03-01T23:42:23.747Z,68.62
2018-03-01T23:44:55.906Z,69.07
2018-03-01T23:47:27.581Z,67.68
2018-03-01T23:49:58.964Z,67.67
2018-03-01T23:52:31.090Z,68.50
2018-03-01T23:55:03.420Z,67.84
2018-03-01T23:57:36.396Z,69.30
